KAUW

Wausau Downtown Airport

Wausau, Wisconsin, USA
KAUW 212106Z 2121/2218 01012G20KT P6SM OVC018 FM220900 01011KT P6SM BKN030 FM221600 04011G20KT P6SM BKN035
Issued Valid From Valid To
Jul-21 @ 21:06 UTC
(2 hours ago)
Jul-21 @ 21:00 UTC
(2 hours ago)
Jul-22 @ 18:00 UTC
(in 19 hours)
Jul-21 @ 21:00 to Jul-22 @ 09:00
KAUW 212106Z 2121/2218 01012G20KT P6SM OVC018
Wind Visibility Clouds
10° at 12 knots
 Gusting to 20 knots
Greater than 6 miles
  • Overcast at 1,800' AGL
From Jul-22 @ 09:00 to Jul-22 @ 16:00
FM220900 01011KT P6SM BKN030
Wind Visibility Clouds
10° at 11 knots Greater than 6 miles
  • Broken at 3,000' AGL
From Jul-22 @ 16:00 to Jul-22 @ 18:00
FM221600 04011G20KT P6SM BKN035
Wind Visibility Clouds
40° at 11 knots
 Gusting to 20 knots
Greater than 6 miles
  • Broken at 3,500' AGL
KAUW 212106Z 2121/2218 01012G20KT P6SM OVC018 FM220900 01011KT P6SM BKN030 FM221600 04011G20KT P6SM BKN035
Issued Jul-21 @ 21:06 UTC
(2 hours ago)
Valid From Jul-21 @ 21:00 UTC
(2 hours ago)
Valid To Jul-22 @ 18:00 UTC
(in 19 hours)
Jul-21 @ 21:00 - Jul-22 @ 09:00
Wind Visibility
10° at 12 knots
 Gusting to 20 knots
Greater than 6 miles
Clouds
  • Overcast at 1,800' AGL
From Jul-22 @ 09:00 - Jul-22 @ 16:00
Wind Visibility
10° at 11 knots Greater than 6 miles
Clouds
  • Broken at 3,000' AGL
From Jul-22 @ 16:00 - Jul-22 @ 18:00
Wind Visibility
40° at 11 knots
 Gusting to 20 knots
Greater than 6 miles
Clouds
  • Broken at 3,500' AGL